sensor_id;sensor_type;location;lat;lon;timestamp;P1;durP1;ratioP1;P2;durP2;ratioP2
68375;SDS011;55318;52.068;5.188;2023-01-19T00:00:41;4.41;;;1.9;;
68375;SDS011;55318;52.068;5.188;2023-01-19T00:02:19;3.9;;;1.8;;
68375;SDS011;55318;52.068;5.188;2023-01-19T00:05:33;6.0;;;2.4;;
68375;SDS011;55318;52.068;5.188;2023-01-19T00:07:10;3.8;;;2.0;;
68375;SDS011;55318;52.068;5.188;2023-01-19T00:08:49;3.7;;;2.0;;
68375;SDS011;55318;52.068;5.188;2023-01-19T00:10:25;4.3;;;2.7;;
68375;SDS011;55318;52.068;5.188;2023-01-19T00:13:37;5.6;;;2.5;;
68375;SDS011;55318;52.068;5.188;2023-01-19T00:15:14;8.1;;;3.3;;
68375;SDS011;55318;52.068;5.188;2023-01-19T00:16:51;3.6;;;2.31;;
68375;SDS011;55318;52.068;5.188;2023-01-19T00:20:04;4.2;;;2.5;;
68375;SDS011;55318;52.068;5.188;2023-01-19T00:21:42;7.1;;;2.6;;
68375;SDS011;55318;52.068;5.188;2023-01-19T00:23:19;4.8;;;2.21;;
68375;SDS011;55318;52.068;5.188;2023-01-19T00:24:55;6.5;;;2.5;;
68375;SDS011;55318;52.068;5.188;2023-01-19T00:28:08;3.8;;;2.21;;
68375;SDS011;55318;52.068;5.188;2023-01-19T00:29:45;4.8;;;2.6;;
68375;SDS011;55318;52.068;5.188;2023-01-19T00:31:21;5.8;;;2.21;;
68375;SDS011;55318;52.068;5.188;2023-01-19T00:34:38;4.0;;;2.1;;
68375;SDS011;55318;52.068;5.188;2023-01-19T00:36:24;4.41;;;1.7;;
68375;SDS011;55318;52.068;5.188;2023-01-19T00:38:00;4.3;;;2.0;;
68375;SDS011;55318;52.068;5.188;2023-01-19T00:39:37;3.2;;;2.1;;
68375;SDS011;55318;52.068;5.188;2023-01-19T00:42:51;3.6;;;2.1;;
68375;SDS011;55318;52.068;5.188;2023-01-19T00:44:28;4.5;;;1.9;;
68375;SDS011;55318;52.068;5.188;2023-01-19T00:46:04;4.7;;;2.4;;
68375;SDS011;55318;52.068;5.188;2023-01-19T00:49:18;3.0;;;1.9;;
68375;SDS011;55318;52.068;5.188;2023-01-19T00:50:53;4.41;;;2.4;;
68375;SDS011;55318;52.068;5.188;2023-01-19T00:52:30;5.6;;;2.4;;
68375;SDS011;55318;52.068;5.188;2023-01-19T00:55:45;6.5;;;2.5;;
68375;SDS011;55318;52.068;5.188;2023-01-19T00:57:21;5.2;;;2.1;;
68375;SDS011;55318;52.068;5.188;2023-01-19T00:58:57;5.8;;;3.0;;
68375;SDS011;55318;52.068;5.188;2023-01-19T01:00:34;8.6;;;2.9;;
68375;SDS011;55318;52.068;5.188;2023-01-19T01:03:47;4.2;;;2.5;;
68375;SDS011;55318;52.068;5.188;2023-01-19T01:05:24;3.5;;;2.8;;
68375;SDS011;55318;52.068;5.188;2023-01-19T01:07:00;3.5;;;2.8;;
68375;SDS011;55318;52.068;5.188;2023-01-19T01:10:13;5.5;;;2.21;;
68375;SDS011;55318;52.068;5.188;2023-01-19T01:11:51;5.3;;;2.31;;
68375;SDS011;55318;52.068;5.188;2023-01-19T01:13:27;2.5;;;1.11;;
68375;SDS011;55318;52.068;5.188;2023-01-19T01:16:42;0.8;;;0.6;;
68375;SDS011;55318;52.068;5.188;2023-01-19T01:18:19;0.8;;;0.5;;
68375;SDS011;55318;52.068;5.188;2023-01-19T01:19:57;1.6;;;0.8;;
68375;SDS011;55318;52.068;5.188;2023-01-19T01:21:34;0.7;;;0.4;;
68375;SDS011;55318;52.068;5.188;2023-01-19T01:24:48;1.11;;;0.5;;
68375;SDS011;55318;52.068;5.188;2023-01-19T01:26:24;1.0;;;0.5;;
68375;SDS011;55318;52.068;5.188;2023-01-19T01:28:02;0.9;;;0.4;;
68375;SDS011;55318;52.068;5.188;2023-01-19T01:31:23;1.0;;;0.3;;
68375;SDS011;55318;52.068;5.188;2023-01-19T01:33:00;0.5;;;0.3;;
68375;SDS011;55318;52.068;5.188;2023-01-19T01:34:36;0.5;;;0.3;;
68375;SDS011;55318;52.068;5.188;2023-01-19T01:36:12;0.9;;;0.7;;
68375;SDS011;55318;52.068;5.188;2023-01-19T01:39:25;0.4;;;0.3;;
68375;SDS011;55318;52.068;5.188;2023-01-19T01:41:02;1.5;;;0.5;;
68375;SDS011;55318;52.068;5.188;2023-01-19T01:42:39;0.7;;;0.4;;
68375;SDS011;55318;52.068;5.188;2023-01-19T01:46:21;0.8;;;0.3;;
68375;SDS011;55318;52.068;5.188;2023-01-19T01:47:58;0.1;;;0.1;;
68375;SDS011;55318;52.068;5.188;2023-01-19T01:49:40;1.8;;;0.4;;
68375;SDS011;55318;52.068;5.188;2023-01-19T01:51:25;3.2;;;0.3;;
68375;SDS011;55318;52.068;5.188;2023-01-19T01:53:09;0.2;;;0.1;;
68375;SDS011;55318;52.068;5.188;2023-01-19T01:56:30;0.5;;;0.5;;
68375;SDS011;55318;52.068;5.188;2023-01-19T01:58:10;0.3;;;0.2;;
68375;SDS011;55318;52.068;5.188;2023-01-19T01:59:48;1.11;;;0.9;;
68375;SDS011;55318;52.068;5.188;2023-01-19T02:04:18;0.9;;;0.5;;
68375;SDS011;55318;52.068;5.188;2023-01-19T02:05:58;1.11;;;0.3;;
68375;SDS011;55318;52.068;5.188;2023-01-19T02:13:25;2.0;;;0.5;;
68375;SDS011;55318;52.068;5.188;2023-01-19T02:15:04;4.8;;;0.7;;
68375;SDS011;55318;52.068;5.188;2023-01-19T02:16:41;2.1;;;0.9;;
68375;SDS011;55318;52.068;5.188;2023-01-19T02:18:17;0.9;;;0.3;;
68375;SDS011;55318;52.068;5.188;2023-01-19T02:21:35;0.7;;;0.4;;
68375;SDS011;55318;52.068;5.188;2023-01-19T02:25:12;0.4;;;0.3;;
68375;SDS011;55318;52.068;5.188;2023-01-19T02:26:49;0.2;;;0.2;;
68375;SDS011;55318;52.068;5.188;2023-01-19T02:28:26;0.9;;;0.5;;
68375;SDS011;55318;52.068;5.188;2023-01-19T02:31:44;0.4;;;0.4;;
68375;SDS011;55318;52.068;5.188;2023-01-19T02:33:21;5.7;;;0.5;;
68375;SDS011;55318;52.068;5.188;2023-01-19T02:34:57;1.3;;;0.1;;
68375;SDS011;55318;52.068;5.188;2023-01-19T02:39:53;0.8;;;0.1;;
68375;SDS011;55318;52.068;5.188;2023-01-19T02:41:34;0.8;;;0.2;;
68375;SDS011;55318;52.068;5.188;2023-01-19T02:43:17;0.6;;;0.5;;
68375;SDS011;55318;52.068;5.188;2023-01-19T02:46:31;1.4;;;0.3;;
68375;SDS011;55318;52.068;5.188;2023-01-19T02:48:07;3.4;;;0.9;;
68375;SDS011;55318;52.068;5.188;2023-01-19T02:49:44;1.11;;;0.2;;
68375;SDS011;55318;52.068;5.188;2023-01-19T02:51:29;1.3;;;0.4;;
68375;SDS011;55318;52.068;5.188;2023-01-19T02:54:59;1.4;;;0.3;;
68375;SDS011;55318;52.068;5.188;2023-01-19T02:56:54;1.11;;;0.3;;
68375;SDS011;55318;52.068;5.188;2023-01-19T02:59:47;0.4;;;0.3;;
68375;SDS011;55318;52.068;5.188;2023-01-19T03:03:28;0.3;;;0.2;;
68375;SDS011;55318;52.068;5.188;2023-01-19T03:05:15;2.7;;;0.2;;
68375;SDS011;55318;52.068;5.188;2023-01-19T03:07:03;0.4;;;0.3;;
68375;SDS011;55318;52.068;5.188;2023-01-19T03:08:46;0.5;;;0.5;;
68375;SDS011;55318;52.068;5.188;2023-01-19T03:10:30;1.9;;;0.3;;
68375;SDS011;55318;52.068;5.188;2023-01-19T03:12:20;0.1;;;0.1;;
68375;SDS011;55318;52.068;5.188;2023-01-19T03:15:51;0.7;;;0.2;;
68375;SDS011;55318;52.068;5.188;2023-01-19T03:17:32;0.2;;;0.2;;
68375;SDS011;55318;52.068;5.188;2023-01-19T03:19:11;0.9;;;0.3;;
68375;SDS011;55318;52.068;5.188;2023-01-19T03:20:54;0.8;;;0.8;;
68375;SDS011;55318;52.068;5.188;2023-01-19T03:24:14;2.1;;;0.4;;
68375;SDS011;55318;52.068;5.188;2023-01-19T03:25:53;0.5;;;0.3;;
68375;SDS011;55318;52.068;5.188;2023-01-19T03:27:34;0.5;;;0.3;;
68375;SDS011;55318;52.068;5.188;2023-01-19T03:29:14;0.4;;;0.2;;
68375;SDS011;55318;52.068;5.188;2023-01-19T03:32:41;1.2;;;0.4;;
68375;SDS011;55318;52.068;5.188;2023-01-19T03:34:23;0.3;;;0.2;;
68375;SDS011;55318;52.068;5.188;2023-01-19T03:36:03;1.8;;;0.2;;
68375;SDS011;55318;52.068;5.188;2023-01-19T03:37:46;1.0;;;0.2;;
68375;SDS011;55318;52.068;5.188;2023-01-19T03:41:05;1.7;;;0.5;;
68375;SDS011;55318;52.068;5.188;2023-01-19T03:42:46;1.8;;;0.8;;
68375;SDS011;55318;52.068;5.188;2023-01-19T03:44:25;1.4;;;0.2;;
68375;SDS011;55318;52.068;5.188;2023-01-19T03:46:05;3.1;;;0.6;;
68375;SDS011;55318;52.068;5.188;2023-01-19T03:49:20;1.5;;;0.3;;
68375;SDS011;55318;52.068;5.188;2023-01-19T03:50:56;2.21;;;0.3;;
68375;SDS011;55318;52.068;5.188;2023-01-19T03:52:34;0.8;;;0.4;;
68375;SDS011;55318;52.068;5.188;2023-01-19T03:54:10;1.9;;;0.5;;
68375;SDS011;55318;52.068;5.188;2023-01-19T03:57:25;0.6;;;0.3;;
68375;SDS011;55318;52.068;5.188;2023-01-19T03:59:04;0.9;;;0.5;;
68375;SDS011;55318;52.068;5.188;2023-01-19T04:00:40;0.1;;;0.1;;
68375;SDS011;55318;52.068;5.188;2023-01-19T04:03:53;1.9;;;0.5;;
68375;SDS011;55318;52.068;5.188;2023-01-19T04:05:29;0.2;;;0.1;;
68375;SDS011;55318;52.068;5.188;2023-01-19T04:07:07;0.6;;;0.2;;
68375;SDS011;55318;52.068;5.188;2023-01-19T04:08:45;0.4;;;0.2;;
68375;SDS011;55318;52.068;5.188;2023-01-19T04:12:00;1.2;;;0.1;;
68375;SDS011;55318;52.068;5.188;2023-01-19T04:13:37;0.1;;;0.1;;
68375;SDS011;55318;52.068;5.188;2023-01-19T04:18:27;0.8;;;0.1;;
68375;SDS011;55318;52.068;5.188;2023-01-19T04:20:04;2.6;;;0.3;;
68375;SDS011;55318;52.068;5.188;2023-01-19T04:21:42;0.5;;;0.3;;
68375;SDS011;55318;52.068;5.188;2023-01-19T04:24:54;4.3;;;0.4;;
68375;SDS011;55318;52.068;5.188;2023-01-19T04:26:30;1.8;;;0.5;;
68375;SDS011;55318;52.068;5.188;2023-01-19T04:28:06;1.7;;;0.3;;
68375;SDS011;55318;52.068;5.188;2023-01-19T04:29:43;2.6;;;0.5;;
68375;SDS011;55318;52.068;5.188;2023-01-19T04:32:57;1.7;;;0.6;;
68375;SDS011;55318;52.068;5.188;2023-01-19T04:34:34;3.9;;;0.6;;
68375;SDS011;55318;52.068;5.188;2023-01-19T04:36:10;0.9;;;0.4;;
68375;SDS011;55318;52.068;5.188;2023-01-19T04:39:23;3.2;;;1.6;;
68375;SDS011;55318;52.068;5.188;2023-01-19T04:40:59;1.7;;;0.6;;
68375;SDS011;55318;52.068;5.188;2023-01-19T04:42:35;3.9;;;0.6;;
68375;SDS011;55318;52.068;5.188;2023-01-19T04:45:48;4.2;;;0.4;;
68375;SDS011;55318;52.068;5.188;2023-01-19T04:47:24;1.6;;;0.9;;
68375;SDS011;55318;52.068;5.188;2023-01-19T04:49:00;4.1;;;1.3;;
68375;SDS011;55318;52.068;5.188;2023-01-19T04:50:36;0.8;;;0.3;;
68375;SDS011;55318;52.068;5.188;2023-01-19T04:53:50;1.7;;;0.4;;
68375;SDS011;55318;52.068;5.188;2023-01-19T04:55:26;4.41;;;1.3;;
68375;SDS011;55318;52.068;5.188;2023-01-19T04:57:03;1.2;;;0.4;;
68375;SDS011;55318;52.068;5.188;2023-01-19T05:00:16;3.0;;;1.0;;
68375;SDS011;55318;52.068;5.188;2023-01-19T05:01:54;2.1;;;0.6;;
68375;SDS011;55318;52.068;5.188;2023-01-19T05:03:31;0.8;;;0.4;;
68375;SDS011;55318;52.068;5.188;2023-01-19T05:06:45;1.2;;;0.4;;
68375;SDS011;55318;52.068;5.188;2023-01-19T05:08:21;2.1;;;0.6;;
68375;SDS011;55318;52.068;5.188;2023-01-19T05:09:57;1.6;;;0.9;;
68375;SDS011;55318;52.068;5.188;2023-01-19T05:11:33;1.3;;;0.5;;
68375;SDS011;55318;52.068;5.188;2023-01-19T05:14:46;1.8;;;0.7;;
68375;SDS011;55318;52.068;5.188;2023-01-19T05:16:22;4.1;;;0.8;;
68375;SDS011;55318;52.068;5.188;2023-01-19T05:17:58;1.8;;;0.5;;
68375;SDS011;55318;52.068;5.188;2023-01-19T05:21:10;4.2;;;1.11;;
68375;SDS011;55318;52.068;5.188;2023-01-19T05:22:47;1.3;;;0.4;;
68375;SDS011;55318;52.068;5.188;2023-01-19T05:24:24;1.5;;;0.5;;
68375;SDS011;55318;52.068;5.188;2023-01-19T05:27:39;6.0;;;0.8;;
68375;SDS011;55318;52.068;5.188;2023-01-19T05:29:15;1.6;;;0.4;;
68375;SDS011;55318;52.068;5.188;2023-01-19T05:30:51;2.1;;;0.9;;
68375;SDS011;55318;52.068;5.188;2023-01-19T05:32:28;2.1;;;0.8;;
68375;SDS011;55318;52.068;5.188;2023-01-19T05:35:40;3.2;;;0.9;;
68375;SDS011;55318;52.068;5.188;2023-01-19T05:37:16;3.3;;;0.7;;
68375;SDS011;55318;52.068;5.188;2023-01-19T05:38:52;2.0;;;0.9;;
68375;SDS011;55318;52.068;5.188;2023-01-19T05:42:05;6.5;;;1.3;;
68375;SDS011;55318;52.068;5.188;2023-01-19T05:43:41;1.9;;;1.7;;
68375;SDS011;55318;52.068;5.188;2023-01-19T05:45:17;1.6;;;1.0;;
68375;SDS011;55318;52.068;5.188;2023-01-19T05:48:29;4.5;;;1.5;;
68375;SDS011;55318;52.068;5.188;2023-01-19T05:50:06;5.9;;;1.0;;
68375;SDS011;55318;52.068;5.188;2023-01-19T05:51:44;2.8;;;1.11;;
68375;SDS011;55318;52.068;5.188;2023-01-19T05:53:20;5.5;;;1.2;;
68375;SDS011;55318;52.068;5.188;2023-01-19T05:56:32;4.41;;;1.4;;
68375;SDS011;55318;52.068;5.188;2023-01-19T05:58:09;3.6;;;1.11;;
68375;SDS011;55318;52.068;5.188;2023-01-19T05:59:45;4.3;;;1.3;;
68375;SDS011;55318;52.068;5.188;2023-01-19T06:02:59;5.7;;;1.3;;
68375;SDS011;55318;52.068;5.188;2023-01-19T06:04:36;3.6;;;1.0;;
68375;SDS011;55318;52.068;5.188;2023-01-19T06:06:14;4.1;;;0.8;;
68375;SDS011;55318;52.068;5.188;2023-01-19T06:09:26;3.4;;;1.3;;
68375;SDS011;55318;52.068;5.188;2023-01-19T06:11:04;3.3;;;1.11;;
68375;SDS011;55318;52.068;5.188;2023-01-19T06:12:41;2.4;;;0.8;;
68375;SDS011;55318;52.068;5.188;2023-01-19T06:14:17;5.9;;;1.11;;
68375;SDS011;55318;52.068;5.188;2023-01-19T06:17:33;5.0;;;1.11;;
68375;SDS011;55318;52.068;5.188;2023-01-19T06:19:09;3.7;;;1.11;;
68375;SDS011;55318;52.068;5.188;2023-01-19T06:20:45;3.6;;;0.9;;
68375;SDS011;55318;52.068;5.188;2023-01-19T06:23:58;8.31;;;1.3;;
68375;SDS011;55318;52.068;5.188;2023-01-19T06:25:34;5.6;;;1.8;;
68375;SDS011;55318;52.068;5.188;2023-01-19T06:27:12;2.4;;;1.3;;
68375;SDS011;55318;52.068;5.188;2023-01-19T06:30:26;3.4;;;1.6;;
68375;SDS011;55318;52.068;5.188;2023-01-19T06:32:03;6.7;;;1.0;;
68375;SDS011;55318;52.068;5.188;2023-01-19T06:33:40;4.2;;;1.11;;
68375;SDS011;55318;52.068;5.188;2023-01-19T06:35:17;6.9;;;1.3;;
68375;SDS011;55318;52.068;5.188;2023-01-19T06:38:29;5.8;;;1.11;;
68375;SDS011;55318;52.068;5.188;2023-01-19T06:40:07;2.4;;;0.7;;
68375;SDS011;55318;52.068;5.188;2023-01-19T06:41:44;3.2;;;1.0;;
68375;SDS011;55318;52.068;5.188;2023-01-19T06:44:57;1.8;;;1.0;;
68375;SDS011;55318;52.068;5.188;2023-01-19T06:46:34;2.5;;;0.7;;
68375;SDS011;55318;52.068;5.188;2023-01-19T06:48:10;3.8;;;1.6;;
68375;SDS011;55318;52.068;5.188;2023-01-19T06:51:24;3.2;;;1.4;;
68375;SDS011;55318;52.068;5.188;2023-01-19T06:53:01;4.61;;;1.7;;
68375;SDS011;55318;52.068;5.188;2023-01-19T06:54:37;5.7;;;1.5;;
68375;SDS011;55318;52.068;5.188;2023-01-19T06:56:14;7.2;;;1.3;;
68375;SDS011;55318;52.068;5.188;2023-01-19T06:59:31;4.1;;;1.0;;
68375;SDS011;55318;52.068;5.188;2023-01-19T07:01:07;4.1;;;1.11;;
68375;SDS011;55318;52.068;5.188;2023-01-19T07:02:44;2.6;;;1.11;;
68375;SDS011;55318;52.068;5.188;2023-01-19T07:05:59;4.3;;;1.2;;
68375;SDS011;55318;52.068;5.188;2023-01-19T07:07:38;5.8;;;1.7;;
68375;SDS011;55318;52.068;5.188;2023-01-19T07:09:16;3.3;;;1.5;;
68375;SDS011;55318;52.068;5.188;2023-01-19T07:10:57;4.5;;;1.8;;
68375;SDS011;55318;52.068;5.188;2023-01-19T07:14:11;2.7;;;1.3;;
68375;SDS011;55318;52.068;5.188;2023-01-19T07:15:47;6.5;;;2.0;;
68375;SDS011;55318;52.068;5.188;2023-01-19T07:17:23;3.7;;;1.0;;
68375;SDS011;55318;52.068;5.188;2023-01-19T07:20:36;5.3;;;1.6;;
68375;SDS011;55318;52.068;5.188;2023-01-19T07:22:12;4.91;;;1.3;;
68375;SDS011;55318;52.068;5.188;2023-01-19T07:23:50;5.11;;;1.6;;
68375;SDS011;55318;52.068;5.188;2023-01-19T07:25:27;3.8;;;1.11;;
68375;SDS011;55318;52.068;5.188;2023-01-19T07:28:40;8.31;;;3.0;;
68375;SDS011;55318;52.068;5.188;2023-01-19T07:30:17;4.61;;;1.11;;
68375;SDS011;55318;52.068;5.188;2023-01-19T07:31:53;7.4;;;2.0;;
68375;SDS011;55318;52.068;5.188;2023-01-19T07:35:07;3.9;;;1.9;;
68375;SDS011;55318;52.068;5.188;2023-01-19T07:36:43;11.5;;;1.7;;
68375;SDS011;55318;52.068;5.188;2023-01-19T07:38:20;6.7;;;1.6;;
68375;SDS011;55318;52.068;5.188;2023-01-19T07:41:33;7.4;;;1.4;;
68375;SDS011;55318;52.068;5.188;2023-01-19T07:43:09;9.0;;;2.0;;
68375;SDS011;55318;52.068;5.188;2023-01-19T07:44:45;3.2;;;1.11;;
68375;SDS011;55318;52.068;5.188;2023-01-19T07:46:22;7.3;;;1.3;;
68375;SDS011;55318;52.068;5.188;2023-01-19T07:49:37;4.2;;;1.4;;
68375;SDS011;55318;52.068;5.188;2023-01-19T07:51:17;5.3;;;1.11;;
68375;SDS011;55318;52.068;5.188;2023-01-19T07:52:54;5.9;;;1.4;;
68375;SDS011;55318;52.068;5.188;2023-01-19T07:56:07;5.2;;;1.8;;
68375;SDS011;55318;52.068;5.188;2023-01-19T07:57:46;6.0;;;1.6;;
68375;SDS011;55318;52.068;5.188;2023-01-19T07:59:24;4.1;;;2.1;;
68375;SDS011;55318;52.068;5.188;2023-01-19T08:01:00;7.9;;;1.8;;
68375;SDS011;55318;52.068;5.188;2023-01-19T08:04:18;6.1;;;1.11;;
68375;SDS011;55318;52.068;5.188;2023-01-19T08:05:56;5.11;;;1.2;;
68375;SDS011;55318;52.068;5.188;2023-01-19T08:07:32;3.4;;;1.4;;
68375;SDS011;55318;52.068;5.188;2023-01-19T08:12:24;5.8;;;1.3;;
68375;SDS011;55318;52.068;5.188;2023-01-19T08:14:01;4.5;;;1.5;;
68375;SDS011;55318;52.068;5.188;2023-01-19T08:15:38;6.2;;;1.3;;
68375;SDS011;55318;52.068;5.188;2023-01-19T08:18:50;9.21;;;1.7;;
68375;SDS011;55318;52.068;5.188;2023-01-19T08:20:27;4.3;;;1.3;;
68375;SDS011;55318;52.068;5.188;2023-01-19T08:22:05;4.61;;;1.8;;
68375;SDS011;55318;52.068;5.188;2023-01-19T08:25:17;5.2;;;1.4;;
68375;SDS011;55318;52.068;5.188;2023-01-19T08:26:56;6.8;;;1.2;;
68375;SDS011;55318;52.068;5.188;2023-01-19T08:28:35;7.7;;;1.9;;
68375;SDS011;55318;52.068;5.188;2023-01-19T08:31:48;6.5;;;1.3;;
68375;SDS011;55318;52.068;5.188;2023-01-19T08:33:24;7.2;;;2.6;;
68375;SDS011;55318;52.068;5.188;2023-01-19T08:35:00;2.9;;;1.11;;
68375;SDS011;55318;52.068;5.188;2023-01-19T08:36:38;3.7;;;1.4;;
68375;SDS011;55318;52.068;5.188;2023-01-19T08:39:52;7.1;;;1.0;;
68375;SDS011;55318;52.068;5.188;2023-01-19T08:41:29;3.7;;;2.0;;
68375;SDS011;55318;52.068;5.188;2023-01-19T08:43:07;3.4;;;1.2;;
68375;SDS011;55318;52.068;5.188;2023-01-19T08:46:22;5.7;;;1.11;;
68375;SDS011;55318;52.068;5.188;2023-01-19T08:47:59;9.0;;;1.6;;
68375;SDS011;55318;52.068;5.188;2023-01-19T08:51:14;4.1;;;1.4;;
68375;SDS011;55318;52.068;5.188;2023-01-19T08:54:30;3.2;;;1.0;;
68375;SDS011;55318;52.068;5.188;2023-01-19T08:56:11;3.1;;;1.0;;
68375;SDS011;55318;52.068;5.188;2023-01-19T08:57:49;3.1;;;0.8;;
68375;SDS011;55318;52.068;5.188;2023-01-19T09:01:03;3.8;;;1.2;;
68375;SDS011;55318;52.068;5.188;2023-01-19T09:02:40;2.31;;;1.0;;
68375;SDS011;55318;52.068;5.188;2023-01-19T09:04:16;5.3;;;0.9;;
68375;SDS011;55318;52.068;5.188;2023-01-19T09:05:52;5.3;;;1.5;;
68375;SDS011;55318;52.068;5.188;2023-01-19T09:09:05;2.5;;;1.0;;
68375;SDS011;55318;52.068;5.188;2023-01-19T09:10:44;3.0;;;0.9;;
68375;SDS011;55318;52.068;5.188;2023-01-19T09:12:22;7.1;;;1.2;;
68375;SDS011;55318;52.068;5.188;2023-01-19T09:15:36;1.7;;;0.9;;
68375;SDS011;55318;52.068;5.188;2023-01-19T09:17:13;5.9;;;1.5;;
68375;SDS011;55318;52.068;5.188;2023-01-19T09:18:49;2.5;;;0.7;;
68375;SDS011;55318;52.068;5.188;2023-01-19T09:20:25;2.21;;;1.0;;
68375;SDS011;55318;52.068;5.188;2023-01-19T09:23:38;1.6;;;0.6;;
68375;SDS011;55318;52.068;5.188;2023-01-19T09:25:14;1.3;;;0.7;;
68375;SDS011;55318;52.068;5.188;2023-01-19T09:26:50;3.1;;;0.7;;
68375;SDS011;55318;52.068;5.188;2023-01-19T09:30:05;4.7;;;1.11;;
68375;SDS011;55318;52.068;5.188;2023-01-19T09:31:43;1.8;;;0.9;;
68375;SDS011;55318;52.068;5.188;2023-01-19T09:33:18;2.4;;;0.5;;
68375;SDS011;55318;52.068;5.188;2023-01-19T09:36:34;2.0;;;1.0;;
68375;SDS011;55318;52.068;5.188;2023-01-19T09:38:11;5.5;;;2.31;;
68375;SDS011;55318;52.068;5.188;2023-01-19T09:39:48;3.7;;;1.2;;
68375;SDS011;55318;52.068;5.188;2023-01-19T09:41:25;3.2;;;1.8;;
68375;SDS011;55318;52.068;5.188;2023-01-19T09:44:49;4.8;;;1.11;;
68375;SDS011;55318;52.068;5.188;2023-01-19T09:46:27;2.8;;;1.2;;
68375;SDS011;55318;52.068;5.188;2023-01-19T09:48:14;7.1;;;1.3;;
68375;SDS011;55318;52.068;5.188;2023-01-19T09:50:05;4.8;;;1.2;;
68375;SDS011;55318;52.068;5.188;2023-01-19T09:51:51;4.0;;;1.3;;
68375;SDS011;55318;52.068;5.188;2023-01-19T09:55:25;1.9;;;1.0;;
68375;SDS011;55318;52.068;5.188;2023-01-19T09:57:02;6.8;;;2.1;;
68375;SDS011;55318;52.068;5.188;2023-01-19T09:58:46;1.2;;;0.7;;
68375;SDS011;55318;52.068;5.188;2023-01-19T10:00:24;3.0;;;1.0;;
68375;SDS011;55318;52.068;5.188;2023-01-19T10:03:58;4.7;;;1.11;;
68375;SDS011;55318;52.068;5.188;2023-01-19T10:05:56;4.2;;;0.9;;
68375;SDS011;55318;52.068;5.188;2023-01-19T10:07:41;2.8;;;0.9;;
68375;SDS011;55318;52.068;5.188;2023-01-19T10:09:30;2.31;;;1.0;;
68375;SDS011;55318;52.068;5.188;2023-01-19T10:11:15;4.3;;;1.11;;
68375;SDS011;55318;52.068;5.188;2023-01-19T10:13:16;1.9;;;1.3;;
68375;SDS011;55318;52.068;5.188;2023-01-19T10:15:18;3.4;;;0.9;;
68375;SDS011;55318;52.068;5.188;2023-01-19T10:17:07;6.4;;;1.4;;
68375;SDS011;55318;52.068;5.188;2023-01-19T10:20:36;2.8;;;1.2;;
68375;SDS011;55318;52.068;5.188;2023-01-19T10:22:19;1.6;;;0.8;;
68375;SDS011;55318;52.068;5.188;2023-01-19T10:24:00;5.11;;;1.2;;
68375;SDS011;55318;52.068;5.188;2023-01-19T10:25:42;7.0;;;2.21;;
68375;SDS011;55318;52.068;5.188;2023-01-19T10:29:02;4.7;;;1.0;;
68375;SDS011;55318;52.068;5.188;2023-01-19T10:30:42;4.5;;;1.4;;
68375;SDS011;55318;52.068;5.188;2023-01-19T10:32:25;5.7;;;1.7;;
68375;SDS011;55318;52.068;5.188;2023-01-19T10:34:05;3.2;;;1.11;;
68375;SDS011;55318;52.068;5.188;2023-01-19T10:35:47;3.6;;;1.3;;
68375;SDS011;55318;52.068;5.188;2023-01-19T10:39:08;2.8;;;1.11;;
68375;SDS011;55318;52.068;5.188;2023-01-19T10:40:52;3.5;;;1.11;;
68375;SDS011;55318;52.068;5.188;2023-01-19T10:42:32;2.1;;;1.2;;
68375;SDS011;55318;52.068;5.188;2023-01-19T10:44:21;5.3;;;0.7;;
68375;SDS011;55318;52.068;5.188;2023-01-19T10:47:35;4.3;;;1.5;;
68375;SDS011;55318;52.068;5.188;2023-01-19T10:49:20;4.3;;;1.4;;
68375;SDS011;55318;52.068;5.188;2023-01-19T10:51:01;2.31;;;0.7;;
68375;SDS011;55318;52.068;5.188;2023-01-19T10:52:41;3.3;;;1.11;;
68375;SDS011;55318;52.068;5.188;2023-01-19T10:56:08;2.5;;;1.11;;
68375;SDS011;55318;52.068;5.188;2023-01-19T10:57:49;2.21;;;1.0;;
68375;SDS011;55318;52.068;5.188;2023-01-19T10:59:28;4.5;;;1.3;;
68375;SDS011;55318;52.068;5.188;2023-01-19T11:01:11;1.9;;;0.9;;
68375;SDS011;55318;52.068;5.188;2023-01-19T11:04:28;2.6;;;1.11;;
68375;SDS011;55318;52.068;5.188;2023-01-19T11:06:17;2.4;;;1.0;;
68375;SDS011;55318;52.068;5.188;2023-01-19T11:07:56;3.6;;;1.3;;
68375;SDS011;55318;52.068;5.188;2023-01-19T11:09:33;3.0;;;1.4;;
68375;SDS011;55318;52.068;5.188;2023-01-19T11:12:54;5.7;;;0.8;;
68375;SDS011;55318;52.068;5.188;2023-01-19T11:14:36;3.6;;;1.2;;
68375;SDS011;55318;52.068;5.188;2023-01-19T11:16:14;2.4;;;1.4;;
68375;SDS011;55318;52.068;5.188;2023-01-19T11:19:40;2.9;;;1.11;;
68375;SDS011;55318;52.068;5.188;2023-01-19T11:23:06;2.0;;;1.11;;
68375;SDS011;55318;52.068;5.188;2023-01-19T11:24:56;3.0;;;0.7;;
68375;SDS011;55318;52.068;5.188;2023-01-19T11:26:38;1.9;;;0.7;;
68375;SDS011;55318;52.068;5.188;2023-01-19T11:28:17;4.3;;;1.11;;
68375;SDS011;55318;52.068;5.188;2023-01-19T11:31:42;0.9;;;0.5;;
68375;SDS011;55318;52.068;5.188;2023-01-19T11:33:23;1.4;;;0.7;;
68375;SDS011;55318;52.068;5.188;2023-01-19T11:35:02;3.5;;;1.2;;
68375;SDS011;55318;52.068;5.188;2023-01-19T11:37:28;2.7;;;0.5;;
68375;SDS011;55318;52.068;5.188;2023-01-19T11:39:14;2.8;;;0.8;;
68375;SDS011;55318;52.068;5.188;2023-01-19T11:40:58;0.7;;;0.4;;
68375;SDS011;55318;52.068;5.188;2023-01-19T11:44:14;6.1;;;0.8;;
68375;SDS011;55318;52.068;5.188;2023-01-19T11:45:54;6.2;;;2.21;;
68375;SDS011;55318;52.068;5.188;2023-01-19T11:47:34;0.7;;;0.5;;
68375;SDS011;55318;52.068;5.188;2023-01-19T11:49:18;3.4;;;0.9;;
68375;SDS011;55318;52.068;5.188;2023-01-19T11:52:44;1.6;;;0.5;;
68375;SDS011;55318;52.068;5.188;2023-01-19T11:54:28;1.0;;;0.5;;
68375;SDS011;55318;52.068;5.188;2023-01-19T11:56:10;3.0;;;1.2;;
68375;SDS011;55318;52.068;5.188;2023-01-19T11:57:50;1.7;;;0.4;;
68375;SDS011;55318;52.068;5.188;2023-01-19T11:59:28;3.3;;;0.4;;
68375;SDS011;55318;52.068;5.188;2023-01-19T12:02:48;1.8;;;0.8;;
68375;SDS011;55318;52.068;5.188;2023-01-19T12:04:30;3.8;;;1.11;;
68375;SDS011;55318;52.068;5.188;2023-01-19T12:06:13;6.8;;;0.9;;
68375;SDS011;55318;52.068;5.188;2023-01-19T12:07:54;4.61;;;0.6;;
68375;SDS011;55318;52.068;5.188;2023-01-19T12:11:17;2.0;;;0.5;;
68375;SDS011;55318;52.068;5.188;2023-01-19T12:13:00;0.8;;;0.5;;
68375;SDS011;55318;52.068;5.188;2023-01-19T12:14:39;0.4;;;0.3;;
68375;SDS011;55318;52.068;5.188;2023-01-19T12:16:31;2.0;;;0.4;;
68375;SDS011;55318;52.068;5.188;2023-01-19T12:19:55;1.5;;;1.11;;
68375;SDS011;55318;52.068;5.188;2023-01-19T12:21:38;0.4;;;0.4;;
68375;SDS011;55318;52.068;5.188;2023-01-19T12:23:17;0.8;;;0.4;;
68375;SDS011;55318;52.068;5.188;2023-01-19T12:25:05;1.0;;;0.5;;
68375;SDS011;55318;52.068;5.188;2023-01-19T12:26:54;2.4;;;1.11;;
68375;SDS011;55318;52.068;5.188;2023-01-19T12:30:16;1.5;;;0.9;;
68375;SDS011;55318;52.068;5.188;2023-01-19T12:33:19;0.7;;;0.3;;
68375;SDS011;55318;52.068;5.188;2023-01-19T12:34:57;4.0;;;0.5;;
68375;SDS011;55318;52.068;5.188;2023-01-19T12:36:34;0.4;;;0.4;;
68375;SDS011;55318;52.068;5.188;2023-01-19T12:38:32;2.31;;;0.9;;
68375;SDS011;55318;52.068;5.188;2023-01-19T12:40:18;2.4;;;0.6;;
68375;SDS011;55318;52.068;5.188;2023-01-19T12:42:04;1.0;;;0.5;;
68375;SDS011;55318;52.068;5.188;2023-01-19T12:43:47;1.7;;;0.7;;
68375;SDS011;55318;52.068;5.188;2023-01-19T12:45:49;2.5;;;0.6;;
68375;SDS011;55318;52.068;5.188;2023-01-19T12:49:03;2.31;;;0.5;;
68375;SDS011;55318;52.068;5.188;2023-01-19T12:50:41;4.61;;;0.5;;
68375;SDS011;55318;52.068;5.188;2023-01-19T12:52:23;1.7;;;0.9;;
68375;SDS011;55318;52.068;5.188;2023-01-19T12:54:06;4.7;;;0.8;;
68375;SDS011;55318;52.068;5.188;2023-01-19T12:57:47;1.9;;;0.5;;
68375;SDS011;55318;52.068;5.188;2023-01-19T12:59:31;2.7;;;0.7;;
68375;SDS011;55318;52.068;5.188;2023-01-19T13:01:11;4.0;;;1.2;;
68375;SDS011;55318;52.068;5.188;2023-01-19T13:02:51;2.9;;;1.3;;
68375;SDS011;55318;52.068;5.188;2023-01-19T13:04:30;2.5;;;1.5;;
68375;SDS011;55318;52.068;5.188;2023-01-19T13:08:18;1.2;;;0.7;;
68375;SDS011;55318;52.068;5.188;2023-01-19T13:09:56;1.0;;;0.8;;
68375;SDS011;55318;52.068;5.188;2023-01-19T13:11:33;0.4;;;0.3;;
68375;SDS011;55318;52.068;5.188;2023-01-19T13:13:15;1.9;;;0.6;;
68375;SDS011;55318;52.068;5.188;2023-01-19T13:15:26;2.4;;;0.5;;
68375;SDS011;55318;52.068;5.188;2023-01-19T13:18:27;1.2;;;0.3;;